CBR weather

Canberra International Airport
Canberra, Australian Capital Territory, Australia

Public forecast

Using degrees Celsius for public forecast. Weather courtesy of forecast.io.

METAR (pilot weather report)

Retrieved 2017/09/25 10:30 UTC (18 minutes ago):

YSCB 251030Z 28009KT CAVOK 11/03 Q1012 1830Z

TAF (pilot weather forecast)

Retrieved 2017/09/25 06:33 UTC (4 hours ago):

TAF YSCB 250510Z 2506/2606 28020G30KT CAVOK FM250800 26010KT CAVOK FM251800 VRB03KT CAVOK FM260000 30012KT CAVOK PROB30 2518/2521 3000 BR FEW001